Time;durP1;ratioP1;P1;durP2;ratioP2;P2;SDS_P1;SDS_P2;PMS_P1;PMS_P2;Temp;Humidity;BMP_temperature;BMP_pressure;BME280_temperature;BME280_humidity;BME280_pressure;Samples;Min_cycle;Max_cycle;Signal;HPM_P1;HPM_P2
2022/06/10 00:00:21;;;;;;;6.33;4.30;;;;;;;;;;5091808;28;20208;-81
2022/06/10 00:02:48;;;;;;;7.60;4.57;;;;;;;;;;5094889;28;20205;-80
2022/06/10 00:05:17;;;;;;;10.23;4.27;;;;;;;;;;5093580;28;20247;-81
2022/06/10 00:07:46;;;;;;;6.70;4.47;;;;;;;;;;5093588;28;20749;-80
2022/06/10 00:10:15;;;;;;;14.50;4.97;;;;;;;;;;5090765;28;20198;-80
2022/06/10 00:12:42;;;;;;;10.20;4.53;;;;;;;;;;5094180;28;20877;-79
2022/06/10 00:15:11;;;;;;;5.67;4.20;;;;;;;;;;5089692;28;20286;-80
2022/06/10 00:17:38;;;;;;;10.87;4.13;;;;;;;;;;5099676;28;20205;-78
2022/06/10 00:20:06;;;;;;;9.37;4.20;;;;;;;;;;5109731;28;20225;-81
2022/06/10 00:22:33;;;;;;;11.17;4.70;;;;;;;;;;5098775;28;20635;-80
2022/06/10 00:25:02;;;;;;;6.57;4.03;;;;;;;;;;5091339;28;20221;-81
2022/06/10 00:27:29;;;;;;;7.47;4.33;;;;;;;;;;5092440;28;20714;-79
2022/06/10 00:29:56;;;;;;;9.00;4.17;;;;;;;;;;5094667;28;20237;-83
2022/06/10 00:32:23;;;;;;;10.83;3.93;;;;;;;;;;5095828;28;20213;-81
2022/06/10 00:34:50;;;;;;;12.53;4.20;;;;;;;;;;5093043;28;20216;-77
2022/06/10 00:37:18;;;;;;;7.53;4.00;;;;;;;;;;5091943;28;20205;-81
2022/06/10 00:39:45;;;;;;;6.50;4.17;;;;;;;;;;5091275;28;20240;-81
2022/06/10 00:42:14;;;;;;;7.30;3.57;;;;;;;;;;5085333;28;20293;-81
2022/06/10 00:44:42;;;;;;;11.77;4.53;;;;;;;;;;5090306;28;20224;-79
2022/06/10 00:47:15;;;;;;;8.27;4.30;;;;;;;;;;5089518;28;20637;-80
2022/06/10 00:49:45;;;;;;;6.43;4.07;;;;;;;;;;5093206;28;20224;-80
2022/06/10 00:52:19;;;;;;;6.67;4.33;;;;;;;;;;5096217;28;20220;-80
2022/06/10 00:54:47;;;;;;;7.10;4.13;;;;;;;;;;5090873;28;20198;-78
2022/06/10 00:57:20;;;;;;;7.53;4.10;;;;;;;;;;5088609;28;20776;-79
2022/06/10 00:59:51;;;;;;;5.73;4.03;;;;;;;;;;5094549;28;20229;-79
2022/06/10 01:02:19;;;;;;;7.33;3.90;;;;;;;;;;5094465;28;20224;-81
2022/06/10 01:04:47;;;;;;;9.90;4.63;;;;;;;;;;5097227;28;20260;-83
2022/06/10 01:07:16;;;;;;;6.97;4.40;;;;;;;;;;5097843;28;20236;-82
2022/06/10 01:09:44;;;;;;;7.43;4.50;;;;;;;;;;5097130;28;20206;-82
2022/06/10 01:12:27;;;;;;;10.07;4.40;;;;;;;;;;5098264;28;20214;-81
2022/06/10 01:15:05;;;;;;;8.70;4.10;;;;;;;;;;5101939;28;20194;-81
2022/06/10 01:17:37;;;;;;;5.53;4.03;;;;;;;;;;5103228;28;20190;-80
2022/06/10 01:20:17;;;;;;;7.10;4.03;;;;;;;;;;5097328;28;20597;-81
2022/06/10 01:23:02;;;;;;;9.13;4.00;;;;;;;;;;5102447;28;20197;-80
2022/06/10 01:25:43;;;;;;;6.00;4.10;;;;;;;;;;5102012;28;20264;-82
2022/06/10 01:28:14;;;;;;;11.77;4.27;;;;;;;;;;5100598;28;20241;-81
2022/06/10 01:30:52;;;;;;;5.17;3.83;;;;;;;;;;5097310;28;20203;-79
2022/06/10 01:33:26;;;;;;;6.10;4.10;;;;;;;;;;5094013;28;20202;-79
2022/06/10 01:35:59;;;;;;;6.93;4.03;;;;;;;;;;5095479;28;20261;-81
2022/06/10 01:38:28;;;;;;;10.33;4.33;;;;;;;;;;5093849;28;20224;-81
2022/06/10 01:41:00;;;;;;;6.60;3.67;;;;;;;;;;5091253;28;20209;-80
2022/06/10 01:43:35;;;;;;;7.73;4.27;;;;;;;;;;5092231;28;20262;-80
2022/06/10 01:46:08;;;;;;;10.80;4.30;;;;;;;;;;5096314;28;20289;-79
2022/06/10 01:48:38;;;;;;;8.27;3.90;;;;;;;;;;5097299;28;20249;-79
2022/06/10 01:51:11;;;;;;;11.33;4.10;;;;;;;;;;5094589;28;20288;-80
2022/06/10 01:53:42;;;;;;;6.23;4.07;;;;;;;;;;5098004;28;20577;-78
2022/06/10 01:56:11;;;;;;;9.43;3.93;;;;;;;;;;5095124;28;20201;-78
2022/06/10 01:58:40;;;;;;;11.47;4.27;;;;;;;;;;5094745;28;20222;-79
2022/06/10 02:01:13;;;;;;;8.17;4.53;;;;;;;;;;5089230;28;20322;-79
2022/06/10 02:03:43;;;;;;;9.00;4.83;;;;;;;;;;5090897;28;20202;-80
2022/06/10 02:06:12;;;;;;;6.67;3.73;;;;;;;;;;5090405;28;20645;-79
2022/06/10 02:08:41;;;;;;;7.63;3.80;;;;;;;;;;5091056;28;20228;-79
2022/06/10 02:11:10;;;;;;;9.40;3.60;;;;;;;;;;5091161;28;20637;-79
2022/06/10 02:13:40;;;;;;;9.03;4.23;;;;;;;;;;5094421;28;20194;-82
2022/06/10 02:16:11;;;;;;;8.33;4.50;;;;;;;;;;5091591;28;20202;-82
2022/06/10 02:18:41;;;;;;;7.57;4.20;;;;;;;;;;5091880;28;20225;-79
2022/06/10 02:21:12;;;;;;;8.00;3.87;;;;;;;;;;5095429;28;20212;-79
2022/06/10 02:23:42;;;;;;;9.27;3.83;;;;;;;;;;5094409;28;20654;-79
2022/06/10 02:26:10;;;;;;;6.17;3.97;;;;;;;;;;5092325;28;20300;-79
2022/06/10 02:28:39;;;;;;;10.20;4.17;;;;;;;;;;5094392;28;20311;-80
2022/06/10 02:31:11;;;;;;;5.23;3.80;;;;;;;;;;5088067;28;20209;-80
2022/06/10 02:33:38;;;;;;;5.33;3.60;;;;;;;;;;5091051;28;20782;-79
2022/06/10 02:36:11;;;;;;;7.53;3.60;;;;;;;;;;5094126;28;20200;-79
2022/06/10 02:38:42;;;;;;;5.43;3.80;;;;;;;;;;5091951;28;20222;-80
2022/06/10 02:41:12;;;;;;;6.90;3.70;;;;;;;;;;5087367;28;20268;-79
2022/06/10 02:43:43;;;;;;;9.33;3.67;;;;;;;;;;5092874;28;20206;-79
2022/06/10 02:46:13;;;;;;;7.30;3.60;;;;;;;;;;5090698;28;20218;-80
2022/06/10 02:48:43;;;;;;;6.63;3.90;;;;;;;;;;5095187;28;20300;-79
2022/06/10 02:51:12;;;;;;;7.07;3.93;;;;;;;;;;5093356;28;20220;-79
2022/06/10 02:53:39;;;;;;;7.20;3.80;;;;;;;;;;5092592;28;20218;-81
2022/06/10 02:56:15;;;;;;;7.07;3.90;;;;;;;;;;5093273;28;20801;-82
2022/06/10 03:01:34;;;;;;;4.30;3.40;;;;;;;;;;5089684;28;20257;-82
2022/06/10 03:04:10;;;;;;;6.33;3.60;;;;;;;;;;5098801;28;20197;-79
2022/06/10 03:06:41;;;;;;;7.20;4.00;;;;;;;;;;5103351;28;20668;-78
2022/06/10 03:09:11;;;;;;;7.57;3.63;;;;;;;;;;5104027;28;20637;-81
2022/06/10 03:11:40;;;;;;;5.00;3.47;;;;;;;;;;5094271;28;20204;-79
2022/06/10 03:14:11;;;;;;;10.27;3.80;;;;;;;;;;5094010;28;20249;-81
2022/06/10 03:16:51;;;;;;;5.53;3.33;;;;;;;;;;5088469;28;20197;-81
2022/06/10 03:19:30;;;;;;;6.77;3.60;;;;;;;;;;5114409;22;20232;-79
2022/06/10 03:22:00;;;;;;;6.70;3.60;;;;;;;;;;5106762;27;20192;-80
2022/06/10 03:24:34;;;;;;;7.10;3.53;;;;;;;;;;5105841;28;20601;-80
2022/06/10 03:27:04;;;;;;;6.87;3.93;;;;;;;;;;5107255;27;20208;-79
2022/06/10 03:29:35;;;;;;;6.17;3.30;;;;;;;;;;5101813;28;20225;-80
2022/06/10 03:32:07;;;;;;;13.20;4.23;;;;;;;;;;5100526;28;20714;-80
2022/06/10 03:34:36;;;;;;;6.93;4.00;;;;;;;;;;5098846;27;20207;-80
2022/06/10 03:37:05;;;;;;;6.93;4.03;;;;;;;;;;5099283;28;20207;-80
2022/06/10 03:39:32;;;;;;;5.37;4.03;;;;;;;;;;5099722;28;20804;-80
2022/06/10 03:42:05;;;;;;;6.63;3.80;;;;;;;;;;5103316;28;20260;-80
2022/06/10 03:44:32;;;;;;;5.07;3.60;;;;;;;;;;5110157;28;20193;-80
2022/06/10 03:47:00;;;;;;;6.73;3.83;;;;;;;;;;5104679;28;20227;-80
2022/06/10 03:49:31;;;;;;;6.33;3.67;;;;;;;;;;5105526;28;20225;-80
2022/06/10 03:51:59;;;;;;;7.67;3.73;;;;;;;;;;5100162;28;20236;-81
2022/06/10 03:54:28;;;;;;;8.10;3.37;;;;;;;;;;5103248;28;20620;-81
2022/06/10 03:56:55;;;;;;;5.37;3.47;;;;;;;;;;5108840;27;20206;-80
2022/06/10 03:59:22;;;;;;;5.13;3.00;;;;;;;;;;5109956;28;20303;-81
2022/06/10 04:01:50;;;;;;;8.73;2.97;;;;;;;;;;5113409;28;20200;-80
2022/06/10 04:04:18;;;;;;;5.47;3.17;;;;;;;;;;5106350;28;20560;-80
2022/06/10 04:06:46;;;;;;;5.37;3.43;;;;;;;;;;5105267;28;20239;-81
2022/06/10 04:09:14;;;;;;;3.57;2.67;;;;;;;;;;5109899;28;20224;-80
2022/06/10 04:11:41;;;;;;;5.30;3.07;;;;;;;;;;5113516;28;20204;-80
2022/06/10 04:14:09;;;;;;;7.43;2.87;;;;;;;;;;5110736;28;20903;-81
2022/06/10 04:16:36;;;;;;;7.17;2.70;;;;;;;;;;5113584;28;20192;-81
2022/06/10 04:19:04;;;;;;;8.07;2.80;;;;;;;;;;5111620;28;20263;-80
2022/06/10 04:21:33;;;;;;;8.80;3.40;;;;;;;;;;5107226;28;20201;-80
2022/06/10 04:24:02;;;;;;;5.10;3.10;;;;;;;;;;5108615;28;20660;-80
2022/06/10 04:26:31;;;;;;;5.80;3.20;;;;;;;;;;5111458;28;20221;-81
2022/06/10 04:28:58;;;;;;;5.17;2.77;;;;;;;;;;5109886;28;20229;-80
2022/06/10 04:31:25;;;;;;;5.20;3.03;;;;;;;;;;5108886;28;20287;-80
2022/06/10 04:33:53;;;;;;;4.70;2.80;;;;;;;;;;5110187;28;20201;-81
2022/06/10 04:36:21;;;;;;;7.97;2.90;;;;;;;;;;5109317;28;20579;-81
2022/06/10 04:38:48;;;;;;;3.53;2.50;;;;;;;;;;5103138;28;20315;-81
2022/06/10 04:41:17;;;;;;;7.83;2.70;;;;;;;;;;5108218;28;20193;-80
2022/06/10 04:43:44;;;;;;;7.13;2.83;;;;;;;;;;5106057;28;20236;-80
2022/06/10 04:46:14;;;;;;;3.73;2.67;;;;;;;;;;5108293;28;20595;-80
2022/06/10 04:48:41;;;;;;;4.80;2.87;;;;;;;;;;5109782;28;20247;-80
2022/06/10 04:51:08;;;;;;;6.60;2.77;;;;;;;;;;5112475;27;20197;-80
2022/06/10 04:53:36;;;;;;;7.27;2.97;;;;;;;;;;5108384;28;20676;-80
2022/06/10 04:56:03;;;;;;;5.97;2.73;;;;;;;;;;5110892;28;20197;-81
2022/06/10 04:58:32;;;;;;;5.37;2.90;;;;;;;;;;5108190;28;20237;-81
2022/06/10 05:00:59;;;;;;;4.47;2.70;;;;;;;;;;5107512;28;20206;-81
2022/06/10 05:03:26;;;;;;;7.23;2.87;;;;;;;;;;5108858;28;20211;-81
2022/06/10 05:05:54;;;;;;;4.43;2.83;;;;;;;;;;5112500;28;20231;-81
2022/06/10 05:08:21;;;;;;;4.47;2.37;;;;;;;;;;5106120;27;20241;-81
2022/06/10 05:10:48;;;;;;;5.30;2.47;;;;;;;;;;5108404;28;20289;-80
2022/06/10 05:13:16;;;;;;;2.93;2.27;;;;;;;;;;5110898;28;20215;-80
2022/06/10 05:15:45;;;;;;;3.17;2.40;;;;;;;;;;5108027;28;20633;-80
2022/06/10 05:18:13;;;;;;;3.80;2.77;;;;;;;;;;5109305;28;20201;-82
2022/06/10 05:20:41;;;;;;;2.97;2.47;;;;;;;;;;5109424;28;20559;-78
2022/06/10 05:23:09;;;;;;;4.23;2.20;;;;;;;;;;5105225;28;20202;-79
2022/06/10 05:25:37;;;;;;;3.87;2.30;;;;;;;;;;5112240;28;20286;-80
2022/06/10 05:28:04;;;;;;;5.03;2.77;;;;;;;;;;5107651;28;20207;-81
2022/06/10 05:30:33;;;;;;;3.60;2.40;;;;;;;;;;5108120;28;20760;-80
2022/06/10 05:33:01;;;;;;;8.53;2.87;;;;;;;;;;5111214;28;21009;-81
2022/06/10 05:35:29;;;;;;;6.63;2.60;;;;;;;;;;5112316;28;20288;-80
2022/06/10 05:37:57;;;;;;;6.30;2.77;;;;;;;;;;5107858;28;20228;-81
2022/06/10 05:40:26;;;;;;;4.53;2.30;;;;;;;;;;5109456;28;20279;-81
2022/06/10 05:42:53;;;;;;;5.73;2.50;;;;;;;;;;5108298;28;20196;-81
2022/06/10 05:45:22;;;;;;;3.93;2.60;;;;;;;;;;5111768;28;20206;-81
2022/06/10 05:47:50;;;;;;;5.33;2.50;;;;;;;;;;5112210;27;20655;-81
2022/06/10 05:50:21;;;;;;;5.83;2.60;;;;;;;;;;5105587;28;20250;-82
2022/06/10 05:52:48;;;;;;;5.93;2.70;;;;;;;;;;5107580;28;20222;-82
2022/06/10 05:55:15;;;;;;;3.47;2.60;;;;;;;;;;5103442;28;20676;-81
2022/06/10 05:57:43;;;;;;;4.77;2.63;;;;;;;;;;5106802;27;20570;-81
2022/06/10 06:00:13;;;;;;;5.37;2.40;;;;;;;;;;5104742;27;20224;-81
2022/06/10 06:02:40;;;;;;;4.63;2.77;;;;;;;;;;5108274;27;20213;-81
2022/06/10 06:05:09;;;;;;;3.53;2.87;;;;;;;;;;5105412;27;20262;-81
2022/06/10 06:07:38;;;;;;;4.77;2.60;;;;;;;;;;5103157;28;20252;-81
2022/06/10 06:10:06;;;;;;;5.30;2.90;;;;;;;;;;5100656;27;20795;-81
2022/06/10 06:12:34;;;;;;;4.70;2.83;;;;;;;;;;5103398;27;20208;-81
2022/06/10 06:15:01;;;;;;;5.23;2.73;;;;;;;;;;5101158;28;20204;-81
2022/06/10 06:17:28;;;;;;;3.10;2.57;;;;;;;;;;5094960;28;20211;-81
2022/06/10 06:19:56;;;;;;;6.00;2.80;;;;;;;;;;5097054;28;20259;-81
2022/06/10 06:22:23;;;;;;;3.53;2.50;;;;;;;;;;5103491;28;20201;-81
2022/06/10 06:24:53;;;;;;;5.90;2.93;;;;;;;;;;5098964;27;20214;-79
2022/06/10 06:27:20;;;;;;;7.30;2.57;;;;;;;;;;5100534;28;20772;-81
2022/06/10 06:29:47;;;;;;;4.43;2.63;;;;;;;;;;5104073;27;20225;-80
2022/06/10 06:32:15;;;;;;;4.63;3.00;;;;;;;;;;5099891;28;20296;-81
2022/06/10 06:34:42;;;;;;;6.53;2.80;;;;;;;;;;5097114;28;20228;-81
2022/06/10 06:37:11;;;;;;;6.77;2.80;;;;;;;;;;5098686;28;20247;-81
2022/06/10 06:39:38;;;;;;;5.33;2.90;;;;;;;;;;5107050;28;20316;-80
2022/06/10 06:42:07;;;;;;;4.70;2.83;;;;;;;;;;5102574;28;20596;-80
2022/06/10 06:44:34;;;;;;;5.50;2.90;;;;;;;;;;5103358;28;20201;-80
2022/06/10 06:47:02;;;;;;;5.37;3.13;;;;;;;;;;5100215;27;20262;-80
2022/06/10 06:49:29;;;;;;;5.20;2.70;;;;;;;;;;5102561;28;20304;-80
2022/06/10 06:51:57;;;;;;;4.07;2.23;;;;;;;;;;5099714;27;20273;-80
2022/06/10 06:54:25;;;;;;;6.67;2.97;;;;;;;;;;5098361;28;20215;-80
2022/06/10 06:56:52;;;;;;;6.53;2.50;;;;;;;;;;5099925;28;20220;-80
2022/06/10 06:59:20;;;;;;;6.80;2.93;;;;;;;;;;5101286;28;20239;-81
2022/06/10 07:01:48;;;;;;;5.97;2.20;;;;;;;;;;5098807;28;20651;-80
2022/06/10 07:04:15;;;;;;;10.33;2.47;;;;;;;;;;5100350;27;20207;-81
2022/06/10 07:06:43;;;;;;;6.43;2.70;;;;;;;;;;5099292;28;20621;-80
2022/06/10 07:09:10;;;;;;;9.67;2.63;;;;;;;;;;5098786;28;20229;-80
2022/06/10 07:11:39;;;;;;;6.47;2.70;;;;;;;;;;5099443;28;20199;-79
2022/06/10 07:14:06;;;;;;;9.27;2.50;;;;;;;;;;5096240;28;20280;-80
2022/06/10 07:16:35;;;;;;;4.70;2.60;;;;;;;;;;5101051;28;20196;-80
2022/06/10 07:19:02;;;;;;;6.87;2.67;;;;;;;;;;5102838;27;20325;-80
2022/06/10 07:21:30;;;;;;;4.17;2.57;;;;;;;;;;5106125;27;20850;-80
2022/06/10 07:23:57;;;;;;;10.57;2.10;;;;;;;;;;5101745;28;20271;-80
2022/06/10 07:26:24;;;;;;;6.57;2.53;;;;;;;;;;5099177;28;20199;-80
2022/06/10 07:28:52;;;;;;;7.27;2.40;;;;;;;;;;5103004;28;20317;-80
2022/06/10 07:31:20;;;;;;;9.50;3.20;;;;;;;;;;5104668;28;20199;-80
2022/06/10 07:33:48;;;;;;;15.83;3.67;;;;;;;;;;5101317;28;20206;-81
2022/06/10 07:36:15;;;;;;;17.53;3.97;;;;;;;;;;5107905;27;20220;-81
2022/06/10 07:38:42;;;;;;;14.57;4.00;;;;;;;;;;5102202;28;20221;-79
2022/06/10 07:43:54;;;;;;;25.13;4.57;;;;;;;;;;5108975;28;20306;-80
2022/06/10 07:46:23;;;;;;;16.67;4.00;;;;;;;;;;5102540;28;20272;-79
2022/06/10 07:48:51;;;;;;;15.80;3.77;;;;;;;;;;5099507;28;20231;-80
2022/06/10 07:51:19;;;;;;;9.57;2.90;;;;;;;;;;5103529;28;20199;-80
2022/06/10 07:53:46;;;;;;;9.80;2.60;;;;;;;;;;5098999;28;20206;-80
2022/06/10 07:56:14;;;;;;;7.80;2.20;;;;;;;;;;5096926;28;20208;-81
2022/06/10 07:58:42;;;;;;;13.47;2.27;;;;;;;;;;5097622;28;20219;-81
2022/06/10 08:01:09;;;;;;;8.77;2.13;;;;;;;;;;5099947;28;20233;-81
2022/06/10 08:03:36;;;;;;;4.90;2.07;;;;;;;;;;5098194;28;20205;-81
2022/06/10 08:06:05;;;;;;;8.53;2.23;;;;;;;;;;5097712;28;20211;-81
2022/06/10 08:08:32;;;;;;;5.47;1.80;;;;;;;;;;5098462;28;20685;-81
2022/06/10 08:11:00;;;;;;;7.83;1.90;;;;;;;;;;5094767;28;20287;-80
2022/06/10 08:13:27;;;;;;;6.77;2.13;;;;;;;;;;5095911;28;20286;-80
2022/06/10 08:15:54;;;;;;;5.63;2.00;;;;;;;;;;5101344;28;20207;-80
2022/06/10 08:18:22;;;;;;;7.80;2.63;;;;;;;;;;5100335;28;20227;-80
2022/06/10 08:23:37;;;;;;;6.10;2.20;;;;;;;;;;5096484;28;20202;-80
2022/06/10 08:26:06;;;;;;;5.37;2.10;;;;;;;;;;5095646;28;20205;-80
2022/06/10 08:28:33;;;;;;;6.63;1.90;;;;;;;;;;5101678;28;20235;-81
2022/06/10 08:31:00;;;;;;;10.07;1.70;;;;;;;;;;5097393;28;20205;-81
2022/06/10 08:33:27;;;;;;;7.37;1.90;;;;;;;;;;5100112;28;20227;-81
2022/06/10 08:35:54;;;;;;;7.57;1.73;;;;;;;;;;5098014;28;20586;-81
2022/06/10 08:38:22;;;;;;;6.97;1.47;;;;;;;;;;5103136;28;20461;-81
2022/06/10 08:40:54;;;;;;;7.03;1.60;;;;;;;;;;5100819;28;20283;-81
2022/06/10 08:43:39;;;;;;;7.30;1.50;;;;;;;;;;5106219;28;20231;-81
2022/06/10 08:46:12;;;;;;;8.53;1.77;;;;;;;;;;5089095;28;20247;-81
2022/06/10 08:48:47;;;;;;;9.77;2.10;;;;;;;;;;5109569;28;20225;-81
2022/06/10 08:51:17;;;;;;;7.93;1.80;;;;;;;;;;5103182;28;20206;-80
2022/06/10 08:53:54;;;;;;;6.50;1.43;;;;;;;;;;5106578;28;20232;-81
2022/06/10 08:56:28;;;;;;;6.63;1.43;;;;;;;;;;5108514;28;20195;-80
2022/06/10 08:58:59;;;;;;;7.90;1.73;;;;;;;;;;5106054;28;20242;-80
2022/06/10 09:01:29;;;;;;;7.90;1.97;;;;;;;;;;5108062;28;20223;-79
2022/06/10 09:03:58;;;;;;;8.67;1.80;;;;;;;;;;5107105;28;20225;-79
2022/06/10 09:06:29;;;;;;;7.50;1.90;;;;;;;;;;5111265;28;20233;-79
2022/06/10 09:08:58;;;;;;;10.10;1.67;;;;;;;;;;5111387;28;20227;-80
2022/06/10 09:11:29;;;;;;;7.93;1.40;;;;;;;;;;5107284;28;20205;-81
2022/06/10 09:13:59;;;;;;;7.27;1.50;;;;;;;;;;5104892;28;20284;-79
2022/06/10 09:16:29;;;;;;;6.17;1.50;;;;;;;;;;5109282;28;20199;-78
2022/06/10 09:43:03;;;;;;;10.50;1.40;;;;;;;;;;5010852;28;20583;-82
2022/06/10 09:45:35;;;;;;;5.47;1.30;;;;;;;;;;5009044;28;20216;-84
2022/06/10 09:48:09;;;;;;;5.53;1.27;;;;;;;;;;5025642;28;20317;-84
2022/06/10 09:50:39;;;;;;;4.93;1.20;;;;;;;;;;5066197;28;20305;-82
2022/06/10 09:53:16;;;;;;;6.20;1.70;;;;;;;;;;5071520;28;20207;-83
2022/06/10 09:56:27;;;;;;;4.63;1.37;;;;;;;;;;5071724;28;20213;-84
2022/06/10 09:59:05;;;;;;;6.83;1.40;;;;;;;;;;5060799;28;20223;-82
2022/06/10 10:01:37;;;;;;;6.50;1.10;;;;;;;;;;5059713;28;20233;-83
2022/06/10 10:04:12;;;;;;;6.33;1.30;;;;;;;;;;5069089;28;20199;-82
2022/06/10 10:06:43;;;;;;;6.77;1.37;;;;;;;;;;5069715;28;20206;-82
2022/06/10 10:09:18;;;;;;;8.30;1.20;;;;;;;;;;5069220;28;20284;-82
2022/06/10 10:12:09;;;;;;;9.83;1.40;;;;;;;;;;5069921;28;20206;-82
2022/06/10 10:14:41;;;;;;;6.33;1.37;;;;;;;;;;5068117;28;20622;-81
2022/06/10 10:17:27;;;;;;;5.90;1.07;;;;;;;;;;5065039;28;20206;-81
2022/06/10 10:20:02;;;;;;;10.73;1.33;;;;;;;;;;5066367;28;21142;-82
2022/06/10 10:22:47;;;;;;;5.50;1.10;;;;;;;;;;5066754;28;20214;-82
2022/06/10 10:25:18;;;;;;;4.73;1.10;;;;;;;;;;5061076;28;20217;-83
2022/06/10 10:27:47;;;;;;;7.37;0.97;;;;;;;;;;5067353;28;20634;-82
2022/06/10 10:30:20;;;;;;;7.63;1.17;;;;;;;;;;5068589;28;20218;-83
2022/06/10 10:32:50;;;;;;;12.43;1.60;;;;;;;;;;5067190;28;20207;-83
2022/06/10 10:35:20;;;;;;;4.70;1.17;;;;;;;;;;5065901;28;20281;-83
2022/06/10 10:37:53;;;;;;;4.73;1.10;;;;;;;;;;5069795;28;20678;-84
2022/06/10 10:40:22;;;;;;;8.33;1.37;;;;;;;;;;5068935;28;20225;-82
2022/06/10 10:42:52;;;;;;;6.63;1.10;;;;;;;;;;5066510;28;20230;-83
2022/06/10 10:45:23;;;;;;;10.27;1.20;;;;;;;;;;5055013;28;20202;-83
2022/06/10 10:47:52;;;;;;;2.57;1.10;;;;;;;;;;5059503;28;20592;-83
2022/06/10 10:50:21;;;;;;;7.83;1.30;;;;;;;;;;5063246;28;20229;-82
2022/06/10 10:52:52;;;;;;;5.77;1.30;;;;;;;;;;5046893;28;20250;-83
2022/06/10 10:58:43;;;;;;;6.93;1.40;;;;;;;;;;5036973;28;20229;-83
2022/06/10 11:01:54;;;;;;;7.00;1.70;;;;;;;;;;5063810;28;20235;-83
2022/06/10 11:04:27;;;;;;;7.87;1.10;;;;;;;;;;5072239;28;20567;-82
2022/06/10 11:07:00;;;;;;;5.40;1.33;;;;;;;;;;5064772;28;20194;-82
2022/06/10 11:09:43;;;;;;;3.67;0.80;;;;;;;;;;5064269;28;20230;-83
2022/06/10 11:12:15;;;;;;;7.77;1.10;;;;;;;;;;5069276;28;20236;-83
2022/06/10 11:14:43;;;;;;;4.27;1.00;;;;;;;;;;5063427;28;20591;-83
2022/06/10 11:17:22;;;;;;;6.67;1.20;;;;;;;;;;5062000;28;20687;-83
2022/06/10 11:19:53;;;;;;;6.17;1.00;;;;;;;;;;5067738;28;20256;-84
2022/06/10 11:22:27;;;;;;;4.70;1.23;;;;;;;;;;5071407;28;20203;-84
2022/06/10 11:24:56;;;;;;;7.53;1.33;;;;;;;;;;5074022;28;20548;-83
2022/06/10 11:27:26;;;;;;;6.67;1.27;;;;;;;;;;5055403;28;20207;-83
2022/06/10 11:29:58;;;;;;;3.77;1.00;;;;;;;;;;5069313;28;20501;-83
2022/06/10 11:32:31;;;;;;;3.37;0.90;;;;;;;;;;5069024;28;20207;-84
2022/06/10 11:35:00;;;;;;;5.13;1.30;;;;;;;;;;5063991;28;20243;-84
2022/06/10 11:37:32;;;;;;;10.00;1.30;;;;;;;;;;5070331;28;20293;-84
2022/06/10 11:40:06;;;;;;;6.47;1.27;;;;;;;;;;5052609;28;20232;-81
2022/06/10 11:42:37;;;;;;;4.87;1.17;;;;;;;;;;5061998;28;20285;-84
2022/06/10 11:45:09;;;;;;;4.63;1.17;;;;;;;;;;5064504;28;20288;-85
2022/06/10 11:47:40;;;;;;;6.80;1.00;;;;;;;;;;5065734;28;20994;-83
2022/06/10 11:50:15;;;;;;;9.27;1.20;;;;;;;;;;5079638;28;20246;-82
2022/06/10 11:52:46;;;;;;;7.40;1.00;;;;;;;;;;5086837;28;20199;-83
2022/06/10 11:55:16;;;;;;;5.33;1.00;;;;;;;;;;5080858;28;20213;-83
2022/06/10 12:00:49;;;;;;;7.67;1.10;;;;;;;;;;5007009;28;20202;-82
2022/06/10 12:03:20;;;;;;;3.53;1.00;;;;;;;;;;5001873;28;20247;-82
2022/06/10 12:05:51;;;;;;;9.10;1.10;;;;;;;;;;5037611;28;20211;-84
2022/06/10 12:08:23;;;;;;;4.40;1.00;;;;;;;;;;5070827;28;20309;-83
2022/06/10 12:10:54;;;;;;;8.77;1.27;;;;;;;;;;5073745;28;20202;-84
2022/06/10 12:13:29;;;;;;;4.93;1.00;;;;;;;;;;5077946;28;20207;-82
2022/06/10 12:15:58;;;;;;;5.53;1.10;;;;;;;;;;5079803;28;20242;-80
2022/06/10 12:18:28;;;;;;;3.77;1.10;;;;;;;;;;5068295;28;20207;-80
2022/06/10 12:20:57;;;;;;;6.27;1.00;;;;;;;;;;5075738;28;20294;-82
2022/06/10 12:23:26;;;;;;;4.73;0.83;;;;;;;;;;5081620;28;20205;-82
2022/06/10 12:26:00;;;;;;;4.47;1.00;;;;;;;;;;5074586;28;20207;-80
2022/06/10 12:28:37;;;;;;;17.23;1.43;;;;;;;;;;5075839;28;20262;-81
2022/06/10 12:31:09;;;;;;;4.03;1.10;;;;;;;;;;5076746;28;20218;-83
2022/06/10 12:33:43;;;;;;;4.53;1.00;;;;;;;;;;5070247;28;20639;-83
2022/06/10 12:36:14;;;;;;;4.50;0.97;;;;;;;;;;5087117;28;20217;-83
2022/06/10 12:41:32;;;;;;;3.53;1.00;;;;;;;;;;5084441;28;20229;-84
2022/06/10 12:44:09;;;;;;;5.17;1.10;;;;;;;;;;5075632;28;20209;-84
2022/06/10 12:46:41;;;;;;;3.60;1.10;;;;;;;;;;5076976;28;20202;-83
2022/06/10 12:55:25;;;;;;;3.63;1.13;;;;;;;;;;5063391;28;20675;-82
2022/06/10 12:58:00;;;;;;;8.43;1.27;;;;;;;;;;5071026;28;20256;-83
2022/06/10 13:00:42;;;;;;;16.03;1.30;;;;;;;;;;5077181;28;20222;-82
2022/06/10 13:03:34;;;;;;;5.50;1.20;;;;;;;;;;5075625;28;20198;-81
2022/06/10 13:06:06;;;;;;;4.60;1.17;;;;;;;;;;5075364;28;20218;-82
2022/06/10 13:08:55;;;;;;;5.50;1.53;;;;;;;;;;5072693;28;21120;-83
2022/06/10 13:11:41;;;;;;;7.33;1.20;;;;;;;;;;5066356;28;20295;-84
2022/06/10 13:14:21;;;;;;;4.07;1.40;;;;;;;;;;5070248;28;20260;-83
2022/06/10 13:16:49;;;;;;;4.77;1.10;;;;;;;;;;5068295;28;20327;-83
2022/06/10 13:19:33;;;;;;;3.93;1.30;;;;;;;;;;5068931;28;20227;-82
2022/06/10 13:22:01;;;;;;;5.17;1.20;;;;;;;;;;5071009;28;20294;-84
2022/06/10 13:24:32;;;;;;;7.50;1.50;;;;;;;;;;5071167;28;20248;-85
2022/06/10 13:27:15;;;;;;;8.60;1.17;;;;;;;;;;5068604;28;20617;-82
2022/06/10 13:29:51;;;;;;;8.23;1.43;;;;;;;;;;5068098;28;20674;-82
2022/06/10 13:32:18;;;;;;;9.13;1.80;;;;;;;;;;5062608;28;20270;-82
2022/06/10 13:34:54;;;;;;;4.87;1.37;;;;;;;;;;5069335;28;20267;-83
2022/06/10 13:37:23;;;;;;;6.70;1.70;;;;;;;;;;5069884;28;20773;-83
2022/06/10 13:39:51;;;;;;;6.30;1.50;;;;;;;;;;5065580;28;20231;-83
2022/06/10 13:42:22;;;;;;;6.70;1.23;;;;;;;;;;5069171;28;20235;-82
2022/06/10 13:44:53;;;;;;;7.23;1.57;;;;;;;;;;5072188;28;20195;-81
2022/06/10 13:47:22;;;;;;;7.70;1.67;;;;;;;;;;5076030;28;20229;-82
2022/06/10 13:50:11;;;;;;;6.43;1.40;;;;;;;;;;5072682;28;20222;-83
2022/06/10 13:52:39;;;;;;;5.13;1.27;;;;;;;;;;5067479;28;20624;-82
2022/06/10 13:58:20;;;;;;;11.23;1.67;;;;;;;;;;5045824;28;20216;-82
2022/06/10 14:00:50;;;;;;;5.23;1.80;;;;;;;;;;5063825;28;20206;-82
2022/06/10 14:03:25;;;;;;;8.20;1.30;;;;;;;;;;5070580;28;20752;-82
2022/06/10 14:05:56;;;;;;;4.97;1.37;;;;;;;;;;5075212;28;20213;-82
2022/06/10 14:08:24;;;;;;;7.73;1.20;;;;;;;;;;5072910;28;20207;-82
2022/06/10 14:10:53;;;;;;;6.97;1.43;;;;;;;;;;5064649;28;20202;-82
2022/06/10 14:13:22;;;;;;;3.40;1.30;;;;;;;;;;5067321;28;20839;-82
2022/06/10 14:15:52;;;;;;;4.47;1.10;;;;;;;;;;5070509;28;20203;-82
2022/06/10 14:18:23;;;;;;;7.37;1.20;;;;;;;;;;5075561;28;20190;-82
2022/06/10 14:20:54;;;;;;;6.47;1.50;;;;;;;;;;5069371;28;20513;-84
2022/06/10 14:23:26;;;;;;;5.50;1.33;;;;;;;;;;5071227;28;20287;-83
2022/06/10 14:26:02;;;;;;;7.40;1.23;;;;;;;;;;5068157;28;20213;-84
2022/06/10 14:28:29;;;;;;;3.67;1.20;;;;;;;;;;5075271;28;20633;-83
2022/06/10 14:31:00;;;;;;;4.93;1.10;;;;;;;;;;5069218;28;20310;-83
2022/06/10 14:33:32;;;;;;;4.90;1.20;;;;;;;;;;5070630;28;20282;-83
2022/06/10 14:36:17;;;;;;;6.03;1.40;;;;;;;;;;5068902;28;20265;-83
2022/06/10 14:39:05;;;;;;;5.93;1.50;;;;;;;;;;5075476;28;20592;-84
2022/06/10 14:41:35;;;;;;;3.97;1.40;;;;;;;;;;5065951;28;20195;-83
2022/06/10 14:44:19;;;;;;;6.17;1.40;;;;;;;;;;5063665;28;20653;-83
2022/06/10 14:47:04;;;;;;;2.70;1.13;;;;;;;;;;5071962;28;20208;-84
2022/06/10 14:49:39;;;;;;;6.40;1.17;;;;;;;;;;5068658;28;20228;-83
2022/06/10 14:52:09;;;;;;;5.50;1.77;;;;;;;;;;5064986;28;20196;-81
2022/06/10 14:54:37;;;;;;;4.13;1.33;;;;;;;;;;5065083;28;20559;-83
2022/06/10 14:57:06;;;;;;;4.30;1.40;;;;;;;;;;5071698;28;20204;-82
2022/06/10 14:59:34;;;;;;;6.03;1.10;;;;;;;;;;5062588;28;20218;-82
2022/06/10 15:02:02;;;;;;;2.83;0.93;;;;;;;;;;5070039;28;20199;-83
2022/06/10 15:04:30;;;;;;;4.00;1.00;;;;;;;;;;5071854;28;20753;-82
2022/06/10 15:07:02;;;;;;;7.00;1.40;;;;;;;;;;5062011;28;20736;-83
2022/06/10 15:09:31;;;;;;;5.00;1.20;;;;;;;;;;5068420;28;20779;-83
2022/06/10 15:12:02;;;;;;;20.43;3.20;;;;;;;;;;5070750;28;20217;-83
2022/06/10 15:14:29;;;;;;;9.63;2.67;;;;;;;;;;5060983;28;20197;-82
2022/06/10 15:16:57;;;;;;;10.17;2.57;;;;;;;;;;5078371;28;20210;-81
2022/06/10 15:19:24;;;;;;;17.97;3.87;;;;;;;;;;5109970;22;20248;-81
2022/06/10 15:21:52;;;;;;;3.40;1.00;;;;;;;;;;5093685;28;20683;-82
2022/06/10 15:24:23;;;;;;;7.93;0.97;;;;;;;;;;5094151;28;20204;-82
2022/06/10 15:26:51;;;;;;;2.80;0.97;;;;;;;;;;5094029;28;20315;-82
2022/06/10 15:29:20;;;;;;;3.63;1.33;;;;;;;;;;5096395;28;20261;-82
2022/06/10 15:31:48;;;;;;;6.13;1.53;;;;;;;;;;5096293;28;20210;-81
2022/06/10 15:34:15;;;;;;;4.93;1.87;;;;;;;;;;5096240;28;20256;-82
2022/06/10 15:42:14;;;;;;;13.40;3.07;;;;;;;;;;5092821;28;20206;-82
2022/06/10 15:44:42;;;;;;;8.63;2.70;;;;;;;;;;5095079;28;20226;-83
2022/06/10 15:47:10;;;;;;;6.83;2.80;;;;;;;;;;5090993;28;20208;-81
2022/06/10 15:49:38;;;;;;;7.97;2.23;;;;;;;;;;5095276;28;20261;-81
2022/06/10 15:52:07;;;;;;;5.23;2.27;;;;;;;;;;5099315;28;20227;-79
2022/06/10 15:57:06;;;;;;;12.77;5.30;;;;;;;;;;5108214;28;20268;-80
2022/06/10 15:57:26;;;;;;;6.33;2.93;;;;;;;;;;5094793;28;20205;-79